ダブリン の空港の天気 - METARとTAF

ダブリン空港 ( EIDW / DUB ) - アイルランド ダブリン
飛行場実況気象(Metar)
観測時間07/22 01:30 IST (07/22 00:30 UTC)
風向・風速東南東 4m/s
視程10km以上
天気現象
少しの雲 雲底高度 370m
全天の4割程度の雲 雲底高度 610m
気温12℃
湿度88%
気圧1001hPa
METAREIDW 220030Z 12008KT 9999 FEW012 SCT020 12/10 Q1001 NOSIG
過去の天気等 Google飛行場航空写真 Wunderground天気予報

過去48時間のMETAR

飛行場予報(TAF)
発表時間: 7/22 00:00 IST (7/21 23:00 UTC)
予報対象時間: 22日1時 IST ~ 23日1時 IST
風向・風速東南東 5m/s
視程10km以上
少しの雲 雲底高度 370m
全天の4割程度の雲 雲底高度 610m
22日3時 IST ~ 22日8時 IST に 確率 30% で一時的に
視程4,000m
天気現象もや
全天の8割程度の雲 雲底高度 210m
22日17時 IST ~ 22日19時 IST に徐々に
風向・風速不定 2m/s
22日23時 IST ~ 23日1時 IST に徐々に
風向・風速西 5m/s
TAF EIDW 212300Z 2200/2224 11010KT 9999 FEW012 SCT020
PROB30 TEMPO 2202/2207 4000 BR BKN007
BECMG 2216/2218 VRB03KT
BECMG 2222/2224 28010KT